Flight Track Log - Related Links

Times and Time Zones

All times are in EST time to prevent confusion due to time zone crossing. See the N678H flight status page for this flight to view local times or setup timezone preferences in your user account.

Time Position Orientation Groundspeed Altitude Reporting Facility
EST Latitude Longitude Course Direction KTS MPH feet Rate Location/Type
Tue 05:03:35 PM 33.4647 -93.9836 355° North 104 120 900  Level Fort Worth Center
Tue 05:04:37 PM 33.4936 -93.9869 355° North 105 121 2,000 1,016 Climbing Fort Worth Center
Tue 05:05:39 PM 33.5228 -93.9925 351° North 105 121 3,000 823 Climbing Fort Worth Center
Tue 05:06:41 PM 33.5553 -93.9997 350° North 109 125 3,700 871 Climbing Fort Worth Center
Tue 05:07:43 PM 33.5956 -93.9850 17° North 120 138 4,800 968 Climbing Fort Worth Center
Tue 05:08:45 PM 33.6328 -93.9728 15° North 129 148 5,700 864 Climbing Fort Worth Center
Tue 05:09:48 PM 33.6708 -93.9594 16° North 136 157 6,600 768 Climbing Fort Worth Center
Tue 05:10:50 PM 33.7061 -93.9586 North 139 160 7,300 823 Climbing Fort Worth Center
Tue 05:11:52 PM 33.7417 -93.9667 349° North 135 155 8,300 823 Climbing Fort Worth Center
Tue 05:12:54 PM 33.7758 -93.9783 344° North 129 148 9,000 871 Climbing Fort Worth Center
Tue 05:13:56 PM 33.8161 -93.9903 346° North 128 147 10,100 919 Climbing Fort Worth Center
Tue 05:14:58 PM 33.8492 -93.9975 350° North 125 144 10,900 774 Climbing Fort Worth Center
Tue 05:16:00 PM 33.8828 -94.0028 353° North 124 143 11,700 774 Climbing Fort Worth Center
Tue 05:17:02 PM 33.9181 -94.0050 357° North 124 143 12,500 720 Climbing Fort Worth Center
Tue 05:18:05 PM 33.9533 -94.0078 356° North 125 144 13,200 672 Climbing Fort Worth Center
Tue 05:19:07 PM 33.9889 -94.0111 356° North 126 145 13,900 387 Climbing Fort Worth Center
Tue 05:20:09 PM 34.0372 -94.0264 345° North 144 166 14,000 145 Climbing Fort Worth Center
Tue 05:21:11 PM 34.0817 -94.0389 347° North 158 182 14,200 48 Climbing Fort Worth Center
Tue 05:22:13 PM 34.1283 -94.0450 354° North 164 189 14,100 -48 Descending Fort Worth Center
Tue 05:23:15 PM 34.1742 -94.0442 North 165 190 14,100  Level Fort Worth Center
Tue 05:24:17 PM 34.2228 -94.0381 North 170 196 14,100 48 Level Fort Worth Center
Tue 05:25:19 PM 34.2667 -94.0419 356° North 161 185 14,200  Climbing Fort Worth Center
Tue 05:26:21 PM 34.3186 -94.0544 349° North 159 183 14,100 -96 Descending Fort Worth Center
Tue 05:27:24 PM 34.3625 -94.0611 353° North 159 183 14,000 -48 Descending Fort Worth Center
Tue 05:28:26 PM 34.4025 -94.0769 342° North 156 180 14,000  Level Fort Worth Center
Tue 05:29:28 PM 34.4428 -94.0936 341° North 155 178 14,000  Level Fort Worth Center
Tue 05:30:30 PM 34.4833 -94.1081 344° North 155 178 14,000 47 Level Fort Worth Center
Tue 05:31:35 PM 34.5342 -94.1197 349° North 155 178 14,100 47 Climbing Memphis Center
Tue 05:32:37 PM 34.5797 -94.1228 357° North 162 186 14,100  Level Memphis Center
Tue 05:33:39 PM 34.6236 -94.1256 357° North 162 186 14,100  Level Memphis Center
Tue 05:34:41 PM 34.6700 -94.1306 355° North 162 186 14,100  Level Memphis Center
Tue 05:35:43 PM 34.7200 -94.1444 347° North 158 182 14,100  Level Memphis Center
Tue 05:36:45 PM 34.7619 -94.1547 349° North 155 178 14,100  Level Memphis Center
Tue 05:37:47 PM 34.8108 -94.1456 North 171 197 14,100  Level Memphis Center
Tue 05:38:49 PM 34.8578 -94.1361 North 171 197 14,100  Level Memphis Center
Tue 05:39:51 PM 34.9058 -94.1306 North 171 197 14,100  Level Memphis Center
Tue 05:40:53 PM 34.9514 -94.1325 358° North 170 196 14,100  Level Memphis Center
Tue 05:41:55 PM 35.0081 -94.1294 North 169 194 14,100  Level Memphis Center
Tue 05:42:57 PM 35.0442 -94.1300 359° North 169 194 14,100  Level Memphis Center
Tue 05:44:00 PM 35.0986 -94.1311 359° North 166 191 14,100 -48 Level Memphis Center
Tue 05:45:02 PM 35.1436 -94.1314 360° North 162 186 14,000 -48 Descending Memphis Center
Tue 05:46:04 PM 35.1903 -94.1289 North 163 188 14,000 48 Level Memphis Center
Tue 05:47:06 PM 35.2364 -94.1261 North 165 190 14,100 48 Climbing Memphis Center
Tue 05:48:08 PM 35.2917 -94.1272 359° North 165 190 14,100 -97 Level Memphis Center
Tue 05:49:10 PM 35.3375 -94.1308 356° North 165 190 13,900 -387 Descending Memphis Center
Tue 05:50:12 PM 35.3881 -94.1356 356° North 173 199 13,300 -581 Descending Memphis Center
Tue 05:51:14 PM 35.4411 -94.1406 356° North 183 211 12,700 -774 Descending Memphis Center
Tue 05:52:16 PM 35.4969 -94.1444 357° North 192 221 11,700 -1,210 Descending Memphis Center
Tue 05:53:18 PM 35.5567 -94.1492 356° North 196 226 10,200 -1,161 Descending Memphis Center
Tue 05:54:20 PM 35.6242 -94.1442 North 208 239 9,300 -968 Descending Memphis Center
Tue 05:55:22 PM 35.6808 -94.1353 North 208 239 8,200 -968 Descending Memphis Center
Tue 05:56:24 PM 35.7389 -94.1092 20° North 208 239 7,300 -816 Descending Memphis Center
Tue 05:57:27 PM 35.7928 -94.0992 North 202 232 6,500 -912 Descending Memphis Center
Tue 05:58:29 PM 35.8478 -94.1028 357° North 200 230 5,400 -677 Descending Memphis Center
Tue 05:59:31 PM 35.9008 -94.1061 357° North 198 228 5,100 -145 Descending Memphis Center
Tue 06:00:33 PM 35.9447 -94.1058 360° North 175 201 5,100 -194 Level Memphis Center
Tue 06:01:35 PM 35.9856 -94.1111 354° North 160 184 4,700 -629 Descending Memphis Center
Tue 06:02:37 PM 36.0297 -94.1186 352° North 155 178 3,800 -871 Descending Memphis Center
Tue 06:04:00 PM 36.0884 -94.1178 North  Level FlightAware Approximate
Tue 06:11:00 PM 36.1667 -94.1167 North  Level FlightAware Approximate
Tue 06:12:00 PM 36.1764 -94.1192 North  Level Estimated
Tue 06:13:00 PM 36.1764 -94.1192 North  Level Estimated
Tue 06:14:00 PM 36.1764 -94.1192 North  Level Estimated

Login

Don't have an account? Register now (free) for customized features, flight alerts, and more!